createdAt,value
2017-11-10T00:02:33.921Z,66.0
2017-11-10T00:19:21.663Z,65.6
2017-11-10T00:36:09.021Z,65.2
2017-11-10T00:52:56.597Z,65.6
2017-11-10T01:09:43.859Z,65.2
2017-11-10T01:26:31.304Z,65.6
2017-11-10T01:43:18.607Z,65.6
2017-11-10T02:00:05.924Z,65.2
2017-11-10T02:16:53.268Z,65.6
2017-11-10T02:33:40.685Z,65.2
2017-11-10T02:50:27.733Z,65.2
2017-11-10T03:07:14.994Z,65.2
2017-11-10T03:24:02.549Z,65.2
2017-11-10T03:40:49.549Z,65.2
2017-11-10T03:57:36.701Z,65.2
2017-11-10T04:14:23.726Z,65.2
2017-11-10T04:31:10.829Z,65.2
2017-11-10T04:47:57.932Z,65.2
2017-11-10T05:04:44.994Z,65.2
2017-11-10T05:21:32.056Z,65.2
2017-11-10T05:38:19.128Z,65.2
2017-11-10T05:55:06.214Z,65.2
2017-11-10T06:11:53.201Z,65.2
2017-11-10T06:28:40.293Z,64.8
2017-11-10T06:45:27.396Z,64.8
2017-11-10T07:02:14.569Z,64.8
2017-11-10T07:19:01.700Z,64.8
2017-11-10T07:35:49.007Z,64.0
2017-11-10T07:52:36.065Z,63.6
2017-11-10T08:09:23.209Z,63.6
2017-11-10T08:26:10.616Z,63.6
2017-11-10T08:42:57.061Z,63.6
2017-11-10T08:59:44.981Z,63.6
2017-11-10T09:16:31.652Z,63.6
2017-11-10T09:33:19.246Z,63.6
2017-11-10T09:50:05.974Z,63.6
2017-11-10T10:06:53.249Z,63.6
2017-11-10T10:23:40.676Z,64.0
2017-11-10T10:40:28.176Z,64.0
2017-11-10T10:57:15.616Z,64.0
2017-11-10T11:14:03.103Z,64.0
2017-11-10T11:30:50.786Z,64.0
2017-11-10T11:47:38.250Z,64.0
2017-11-10T12:04:26.341Z,64.0
2017-11-10T12:21:13.872Z,64.0
2017-11-10T12:38:01.627Z,63.6
2017-11-10T12:54:49.577Z,63.6
2017-11-10T13:11:37.484Z,63.6
2017-11-10T13:28:25.513Z,63.6
2017-11-10T13:45:15.344Z,63.6
2017-11-10T14:02:01.422Z,63.2
2017-11-10T14:18:49.291Z,63.6
2017-11-10T14:35:37.152Z,63.2
2017-11-10T14:52:25.694Z,63.6
2017-11-10T15:09:13.172Z,63.6
2017-11-10T15:26:01.454Z,64.0
2017-11-10T15:42:49.342Z,64.4
2017-11-10T15:59:37.485Z,64.4
2017-11-10T16:16:25.784Z,64.4
2017-11-10T16:33:13.867Z,65.6
2017-11-10T16:50:01.593Z,66.8
2017-11-10T17:06:49.975Z,68.0
2017-11-10T17:23:37.118Z,69.2
2017-11-10T17:40:24.850Z,69.6
2017-11-10T17:57:12.498Z,70.0
2017-11-10T18:14:00.449Z,70.8
2017-11-10T18:30:47.853Z,71.2
2017-11-10T18:47:35.166Z,72.0
2017-11-10T19:04:22.533Z,72.8
2017-11-10T19:21:10.083Z,73.2
2017-11-10T19:37:57.285Z,73.6
2017-11-10T19:54:44.383Z,73.6
2017-11-10T20:11:31.699Z,73.6
2017-11-10T20:28:18.911Z,74.0
2017-11-10T20:45:05.985Z,74.0
2017-11-10T21:01:53.098Z,74.0
2017-11-10T21:18:40.179Z,74.0
2017-11-10T21:35:27.348Z,74.0
2017-11-10T21:52:14.485Z,73.6
2017-11-10T22:09:01.683Z,73.6
2017-11-10T22:25:49.121Z,73.6
2017-11-10T22:42:36.061Z,73.6
2017-11-10T22:59:23.285Z,72.8
2017-11-10T23:16:10.390Z,72.8
2017-11-10T23:32:57.591Z,72.8
2017-11-10T23:49:44.705Z,72.8
